createdAt,value
2019-01-30T00:02:36.508Z,-1.5
2019-01-30T00:07:36.549Z,-1.5
2019-01-30T00:12:36.562Z,-1.6
2019-01-30T00:17:36.575Z,-1.6
2019-01-30T00:22:36.572Z,-1.7
2019-01-30T00:27:36.579Z,-1.7
2019-01-30T00:32:36.589Z,-1.8
2019-01-30T00:37:36.790Z,-1.8
2019-01-30T00:42:36.576Z,-1.8
2019-01-30T00:47:36.568Z,-1.9
2019-01-30T00:52:36.579Z,-1.9
2019-01-30T00:57:36.842Z,-2
2019-01-30T01:02:36.580Z,-2.1
2019-01-30T01:07:36.804Z,-2.1
2019-01-30T01:12:36.590Z,-2.2
2019-01-30T01:17:36.705Z,-2.3
2019-01-30T01:22:36.605Z,-2.3
2019-01-30T01:27:36.607Z,-2.4
2019-01-30T01:32:36.560Z,-2.4
2019-01-30T01:37:36.800Z,-2.4
2019-01-30T01:42:36.616Z,-2.5
2019-01-30T01:47:36.627Z,-2.5
2019-01-30T01:52:36.727Z,-2.5
2019-01-30T01:57:36.827Z,-2.6
2019-01-30T02:02:36.608Z,-2.6
2019-01-30T02:07:36.613Z,-2.6
2019-01-30T02:12:36.829Z,-2.6
2019-01-30T02:17:36.617Z,-2.6
2019-01-30T02:22:36.780Z,-2.7
2019-01-30T02:27:36.622Z,-2.7
2019-01-30T02:32:36.749Z,-2.7
2019-01-30T02:37:36.644Z,-2.6
2019-01-30T02:42:36.649Z,-2.7
2019-01-30T02:47:36.627Z,-2.7
2019-01-30T02:52:36.781Z,-2.6
2019-01-30T02:57:36.593Z,-2.7
2019-01-30T03:02:36.658Z,-2.7
2019-01-30T03:07:36.649Z,-2.7
2019-01-30T03:12:36.831Z,-2.7
2019-01-30T03:17:36.662Z,-2.7
2019-01-30T03:22:36.785Z,-2.8
2019-01-30T03:27:36.655Z,-2.7
2019-01-30T03:32:36.876Z,-2.7
2019-01-30T03:37:36.670Z,-2.7
2019-01-30T03:42:36.673Z,-2.8
2019-01-30T03:47:36.638Z,-2.9
2019-01-30T03:52:36.656Z,-3.1
2019-01-30T03:57:36.691Z,-3.2
2019-01-30T04:02:36.691Z,-3.4
2019-01-30T04:07:36.681Z,-3.5
2019-01-30T04:12:36.816Z,-3.7
2019-01-30T04:17:36.696Z,-3.8
2019-01-30T04:22:36.695Z,-3.9
2019-01-30T04:27:36.707Z,-4
2019-01-30T04:32:36.678Z,-4.2
2019-01-30T04:37:36.696Z,-4.2
2019-01-30T04:42:36.705Z,-4.2
2019-01-30T04:47:36.703Z,-4.3
2019-01-30T04:52:36.705Z,-4.4
2019-01-30T04:57:36.698Z,-4.5
2019-01-30T05:02:36.719Z,-4.5
2019-01-30T05:07:36.723Z,-4.6
2019-01-30T05:12:36.975Z,-4.7
2019-01-30T05:17:36.982Z,-4.8
2019-01-30T05:22:36.739Z,-4.8
2019-01-30T05:27:36.699Z,-4.8
2019-01-30T05:32:36.735Z,-4.9
2019-01-30T05:37:36.866Z,-4.9
2019-01-30T05:42:36.748Z,-5
2019-01-30T05:47:36.743Z,-5
2019-01-30T05:52:36.907Z,-5.1
2019-01-30T05:57:36.924Z,-5.1
2019-01-30T06:02:36.987Z,-5.2
2019-01-30T06:07:36.752Z,-5.2
2019-01-30T06:12:36.921Z,-5.3
2019-01-30T06:17:36.971Z,-5.3
2019-01-30T06:22:36.907Z,-5.3
2019-01-30T06:27:36.773Z,-5.3
2019-01-30T06:32:36.962Z,-5.3
2019-01-30T06:37:36.972Z,-5.3
2019-01-30T06:42:36.923Z,-5.3
2019-01-30T06:47:36.896Z,-5.2
2019-01-30T06:52:36.828Z,-5.2
2019-01-30T06:57:36.920Z,-5.2
2019-01-30T07:02:36.982Z,-5.1
2019-01-30T07:07:37.022Z,-5
2019-01-30T07:12:36.774Z,-4.9
2019-01-30T07:17:36.982Z,-4.7
2019-01-30T07:22:36.802Z,-4.7
2019-01-30T07:27:36.802Z,-4.5
2019-01-30T07:32:42.215Z,-4.4
2019-01-30T07:37:37.021Z,-4.2
2019-01-30T07:42:37.047Z,-4.1
2019-01-30T07:47:36.956Z,-3.9
2019-01-30T07:52:36.998Z,-3.8
2019-01-30T07:57:36.930Z,-3.7
2019-01-30T08:02:36.826Z,-3.4
2019-01-30T08:07:36.824Z,-3.2
2019-01-30T08:12:36.982Z,-3
2019-01-30T08:17:36.958Z,-2.9
2019-01-30T08:22:36.832Z,-2.7
2019-01-30T08:27:36.983Z,-2.4
2019-01-30T08:32:37.237Z,-2.3
2019-01-30T08:37:38.500Z,-2
2019-01-30T08:42:36.828Z,-1.7
2019-01-30T08:47:36.960Z,-1.5
2019-01-30T08:52:36.837Z,-1.3
2019-01-30T08:57:37.122Z,-1.1
2019-01-30T09:02:37.076Z,-0.9
2019-01-30T09:07:43.808Z,-0.7
2019-01-30T09:12:37.062Z,-0.5
2019-01-30T09:17:37.094Z,-0.4
2019-01-30T09:22:36.857Z,-0.2
2019-01-30T09:27:37.082Z,0.1
2019-01-30T09:32:37.084Z,0.3
2019-01-30T09:37:36.990Z,0.4
2019-01-30T09:42:37.158Z,0.7
2019-01-30T09:47:36.915Z,0.8
2019-01-30T09:52:36.869Z,0.9
2019-01-30T09:57:37.034Z,1
2019-01-30T10:02:37.089Z,1.2
2019-01-30T10:07:37.117Z,1.3
2019-01-30T10:12:37.027Z,1.5
2019-01-30T10:17:36.883Z,1.7
2019-01-30T10:22:37.103Z,1.9
2019-01-30T10:27:36.883Z,2.1
2019-01-30T10:32:36.872Z,2.2
2019-01-30T10:37:36.888Z,2.3
2019-01-30T10:42:37.081Z,2.4
2019-01-30T10:47:37.023Z,2.5
2019-01-30T10:52:37.121Z,2.5
2019-01-30T10:57:36.888Z,2.6
2019-01-30T11:02:37.066Z,2.7
2019-01-30T11:07:36.910Z,2.7
2019-01-30T11:12:36.903Z,2.9
2019-01-30T11:17:36.920Z,2.9
2019-01-30T11:22:37.117Z,2.9
2019-01-30T11:27:37.141Z,3
2019-01-30T11:32:36.916Z,3.1
2019-01-30T11:37:37.094Z,3.2
2019-01-30T11:42:37.142Z,3.3
2019-01-30T11:47:37.181Z,3.3
2019-01-30T11:52:37.053Z,3.5
2019-01-30T11:57:37.144Z,3.4
2019-01-30T12:02:36.936Z,3.4
2019-01-30T12:07:37.102Z,3.3
2019-01-30T12:12:37.153Z,3.3
2019-01-30T12:17:37.191Z,3.1
2019-01-30T12:22:37.106Z,3
2019-01-30T12:27:37.137Z,3
2019-01-30T12:32:37.180Z,3.1
2019-01-30T12:37:37.198Z,3
2019-01-30T12:42:36.907Z,2.9
2019-01-30T12:47:37.127Z,2.9
2019-01-30T12:52:37.099Z,3
2019-01-30T12:57:37.091Z,3.1
2019-01-30T13:02:36.979Z,3.2
2019-01-30T13:07:36.933Z,3.3
2019-01-30T13:12:37.134Z,3.6
2019-01-30T13:17:37.181Z,3.8
2019-01-30T13:22:37.218Z,3.9
2019-01-30T13:27:37.135Z,4
2019-01-30T13:32:37.001Z,3.9
2019-01-30T13:37:36.985Z,3.9
2019-01-30T13:42:37.138Z,4.1
2019-01-30T13:47:37.003Z,3.8
2019-01-30T13:52:37.219Z,3.7
2019-01-30T13:57:37.033Z,3.7
2019-01-30T14:02:37.011Z,3.7
2019-01-30T14:07:37.014Z,3.8
2019-01-30T14:12:37.004Z,3.8
2019-01-30T14:17:37.178Z,3.8
2019-01-30T14:22:37.200Z,3.8
2019-01-30T14:27:37.190Z,3.8
2019-01-30T14:32:37.052Z,3.6
2019-01-30T14:37:37.201Z,3.5
2019-01-30T14:42:37.248Z,3.3
2019-01-30T14:47:37.163Z,3.2
2019-01-30T14:52:37.158Z,3
2019-01-30T14:57:37.037Z,3
2019-01-30T15:02:37.061Z,2.8
2019-01-30T15:07:37.204Z,2.7
2019-01-30T15:12:37.301Z,2.6
2019-01-30T15:17:37.283Z,2.5
2019-01-30T15:22:37.209Z,2.4
2019-01-30T15:27:37.258Z,2.3
2019-01-30T15:32:37.189Z,2.2
2019-01-30T15:37:37.088Z,2.2
2019-01-30T15:42:37.068Z,2.1
2019-01-30T15:47:37.063Z,2
2019-01-30T15:52:37.061Z,1.9
2019-01-30T15:57:37.233Z,1.8
2019-01-30T16:02:37.295Z,1.8
2019-01-30T16:07:37.096Z,1.7
2019-01-30T16:12:37.192Z,1.6
2019-01-30T16:17:37.084Z,1.5
2019-01-30T16:22:37.051Z,1.4
2019-01-30T16:27:37.100Z,1.3
2019-01-30T16:32:37.073Z,1.2
2019-01-30T16:37:37.079Z,1.1
2019-01-30T16:42:37.078Z,1.1
2019-01-30T16:47:37.067Z,1
2019-01-30T16:52:37.080Z,1
2019-01-30T16:57:37.326Z,1
2019-01-30T17:02:37.393Z,1
2019-01-30T17:07:37.051Z,1
2019-01-30T17:12:37.095Z,1
2019-01-30T17:17:37.087Z,1
2019-01-30T17:22:37.110Z,0.9
2019-01-30T17:27:37.105Z,0.9
2019-01-30T17:32:37.110Z,0.9
2019-01-30T17:37:37.138Z,0.9
2019-01-30T17:42:37.118Z,0.8
2019-01-30T17:47:37.075Z,0.8
2019-01-30T17:52:37.189Z,0.8
2019-01-30T17:57:37.133Z,0.7
2019-01-30T18:02:37.092Z,0.7
2019-01-30T18:07:37.124Z,0.7
2019-01-30T18:12:37.157Z,0.7
2019-01-30T18:17:37.154Z,0.7
2019-01-30T18:22:37.139Z,0.7
2019-01-30T18:27:38.317Z,0.7
2019-01-30T18:32:37.142Z,0.7
2019-01-30T18:37:37.148Z,0.7
2019-01-30T18:42:37.163Z,0.7
2019-01-30T18:47:40.147Z,0.7
2019-01-30T18:52:37.195Z,0.7
2019-01-30T18:57:37.182Z,0.7
2019-01-30T19:02:37.217Z,0.7
2019-01-30T19:07:37.198Z,0.6
2019-01-30T19:12:37.244Z,0.6
2019-01-30T19:17:37.310Z,0.6
2019-01-30T19:22:37.211Z,0.6
2019-01-30T19:27:37.205Z,0.5
2019-01-30T19:32:37.342Z,0.5
2019-01-30T19:37:37.444Z,0.5
2019-01-30T19:42:37.368Z,0.4
2019-01-30T19:47:37.200Z,0.4
2019-01-30T19:52:37.190Z,0.4
2019-01-30T19:57:38.238Z,0.4
2019-01-30T20:02:37.216Z,0.3
2019-01-30T20:07:38.214Z,0.3
2019-01-30T20:12:37.376Z,0.3
2019-01-30T20:17:37.193Z,0.3
2019-01-30T20:22:37.242Z,0.3
2019-01-30T20:27:39.919Z,0.4
2019-01-30T20:32:37.239Z,0.4
2019-01-30T20:37:37.650Z,0.4
2019-01-30T20:42:37.228Z,0.3
2019-01-30T20:47:40.281Z,0.3
2019-01-30T20:52:37.267Z,0.3
2019-01-30T20:57:37.247Z,0.3
2019-01-30T21:02:37.250Z,0.3
2019-01-30T21:07:37.660Z,0.3
2019-01-30T21:12:37.518Z,0.3
2019-01-30T21:17:37.253Z,0.4
2019-01-30T21:22:37.246Z,0.4
2019-01-30T21:27:37.476Z,0.5
2019-01-30T21:32:37.253Z,0.4
2019-01-30T21:37:48.300Z,0.5
2019-01-30T21:42:37.268Z,0.4
2019-01-30T21:47:37.272Z,0.4
2019-01-30T21:52:37.294Z,0.4
2019-01-30T21:57:37.281Z,0.4
2019-01-30T22:02:37.301Z,0.4
2019-01-30T22:07:37.272Z,0.4
2019-01-30T22:12:37.283Z,0.4
2019-01-30T22:17:37.391Z,0.3
2019-01-30T22:22:37.284Z,0.3
2019-01-30T22:27:37.273Z,0.3
2019-01-30T22:32:37.295Z,0.3
2019-01-30T22:37:37.243Z,0.3
2019-01-30T22:42:37.278Z,0.3
2019-01-30T22:47:37.522Z,0.3
2019-01-30T22:52:37.431Z,0.3
2019-01-30T22:57:37.279Z,0.3
2019-01-30T23:02:37.303Z,0.3
2019-01-30T23:07:37.427Z,0.3
2019-01-30T23:12:37.475Z,0.3
2019-01-30T23:17:37.419Z,0.3
2019-01-30T23:22:37.544Z,0.2
2019-01-30T23:27:37.475Z,0.2
2019-01-30T23:32:37.316Z,0.2
2019-01-30T23:37:37.286Z,0.2
2019-01-30T23:42:37.472Z,0.2
2019-01-30T23:47:37.320Z,0.2
2019-01-30T23:52:37.323Z,0.2
2019-01-30T23:57:37.469Z,0.2
